Time,TemperatureF,DewpointF,PressureIn,WindDirection,WindDirectionDegrees,WindSpeedMPH,WindSpeedGustMPH,Humidity,HourlyPrecipIn,Conditions,Clouds,dailyrainin,SolarRadiationWatts/m^2,SoftwareType,DateUTC
2015-08-30 00:02:00,66.0,64.5,30.01,WNW,290,0.0,0.0,95,0.00,,,0.00,0.00,VWS V14.00,2015-08-30 05:02:00,
2015-08-30 00:05:00,66.0,64.5,30.01,WNW,291,0.0,0.0,95,0.00,,,0.00,0.00,VWS V14.00,2015-08-30 05:05:00,
2015-08-30 00:10:00,66.0,64.5,30.01,WNW,290,0.0,0.0,95,0.00,,,0.00,0.00,VWS V14.00,2015-08-30 05:10:00,
2015-08-30 00:15:00,65.9,64.4,30.01,WNW,291,0.0,0.0,95,0.00,,,0.00,0.00,VWS V14.00,2015-08-30 05:15:00,
2015-08-30 00:25:00,65.5,64.0,30.01,WNW,290,0.0,0.0,95,0.00,,,0.00,0.00,VWS V14.00,2015-08-30 05:25:00,
2015-08-30 00:30:00,65.3,63.8,30.00,WNW,290,0.0,0.0,95,0.00,,,0.00,0.00,VWS V14.00,2015-08-30 05:30:00,
2015-08-30 00:35:00,65.1,63.6,30.01,WNW,290,0.0,0.0,95,0.00,,,0.00,0.00,VWS V14.00,2015-08-30 05:35:00,
2015-08-30 00:40:00,64.9,63.4,30.01,WNW,290,0.0,0.0,95,0.00,,,0.00,0.00,VWS V14.00,2015-08-30 05:40:00,
2015-08-30 00:45:00,64.7,62.9,30.01,WNW,291,0.0,0.0,94,0.00,,,0.00,0.00,VWS V14.00,2015-08-30 05:45:00,
2015-08-30 00:50:00,64.4,62.9,30.01,WNW,291,0.0,0.0,95,0.00,,,0.00,0.00,VWS V14.00,2015-08-30 05:50:00,
2015-08-30 00:55:00,64.2,62.7,30.01,WNW,291,0.0,0.0,95,0.00,,,0.00,0.00,VWS V14.00,2015-08-30 05:55:00,
2015-08-30 01:00:00,64.0,62.5,30.01,WNW,291,0.0,0.0,95,0.00,,,0.00,0.00,VWS V14.00,2015-08-30 06:00:00,
2015-08-30 01:05:00,63.8,62.3,30.01,WNW,292,0.0,0.0,95,0.00,,,0.00,0.00,VWS V14.00,2015-08-30 06:05:00,
2015-08-30 01:10:00,63.6,62.2,30.01,WNW,291,0.0,0.0,95,0.00,,,0.00,0.00,VWS V14.00,2015-08-30 06:10:00,
2015-08-30 01:15:00,63.5,62.0,30.01,WNW,290,0.0,0.0,95,0.00,,,0.00,0.00,VWS V14.00,2015-08-30 06:15:00,
2015-08-30 01:20:00,63.2,61.8,30.01,WNW,290,0.0,0.0,95,0.00,,,0.00,0.00,VWS V14.00,2015-08-30 06:20:00,
2015-08-30 01:25:00,63.0,61.2,30.01,WNW,291,0.0,0.0,94,0.00,,,0.00,0.00,VWS V14.00,2015-08-30 06:25:00,
2015-08-30 01:30:00,62.8,61.0,30.01,WNW,290,0.0,0.0,94,0.00,,,0.00,0.00,VWS V14.00,2015-08-30 06:30:00,
2015-08-30 01:35:00,62.6,61.2,30.01,WNW,290,0.0,0.0,95,0.00,,,0.00,0.00,VWS V14.00,2015-08-30 06:35:00,
2015-08-30 01:40:00,62.4,61.0,30.01,WNW,291,0.0,0.0,95,0.00,,,0.00,0.00,VWS V14.00,2015-08-30 06:40:00,
2015-08-30 01:45:00,62.2,60.8,30.01,WNW,290,0.0,0.0,95,0.00,,,0.00,0.00,VWS V14.00,2015-08-30 06:45:00,
2015-08-30 01:50:00,62.0,60.6,30.01,WNW,291,0.0,0.0,95,0.00,,,0.00,0.00,VWS V14.00,2015-08-30 06:50:00,
2015-08-30 01:55:00,61.8,60.4,30.01,WNW,291,0.0,0.0,95,0.00,,,0.00,0.00,VWS V14.00,2015-08-30 06:55:00,
2015-08-30 02:00:00,61.6,60.2,30.01,WNW,290,0.0,0.0,95,0.00,,,0.00,0.00,VWS V14.00,2015-08-30 07:00:00,
2015-08-30 02:05:00,61.4,60.0,30.01,WNW,290,0.0,0.0,95,0.00,,,0.00,0.00,VWS V14.00,2015-08-30 07:05:00,
2015-08-30 02:06:00,61.3,59.9,30.01,WNW,291,0.0,0.0,95,0.00,,,0.00,0.00,VWS V14.00,2015-08-30 07:06:00,
2015-08-30 02:08:00,61.3,60.2,30.01,WNW,291,0.0,0.0,96,0.00,,,0.00,0.00,VWS V14.00,2015-08-30 07:08:00,
2015-08-30 02:13:00,61.2,60.0,30.00,WNW,291,0.0,0.0,96,0.00,,,0.00,0.00,VWS V14.00,2015-08-30 07:13:00,
2015-08-30 02:18:00,61.1,60.0,30.00,WNW,290,0.0,0.0,96,0.00,,,0.00,0.00,VWS V14.00,2015-08-30 07:18:00,
2015-08-30 02:23:00,61.0,59.9,30.00,WNW,291,0.0,0.0,96,0.00,,,0.00,0.00,VWS V14.00,2015-08-30 07:23:00,
2015-08-30 02:28:00,60.9,59.8,30.00,WNW,291,0.0,0.0,96,0.00,,,0.00,0.00,VWS V14.00,2015-08-30 07:28:00,
2015-08-30 02:33:00,60.7,59.6,30.00,WNW,290,0.0,0.0,96,0.00,,,0.00,0.00,VWS V14.00,2015-08-30 07:33:00,
2015-08-30 02:38:00,60.5,59.4,30.00,WNW,291,0.0,0.0,96,0.00,,,0.00,0.00,VWS V14.00,2015-08-30 07:38:00,
2015-08-30 02:43:00,60.2,59.1,30.00,WNW,290,0.0,0.0,96,0.00,,,0.00,0.00,VWS V14.00,2015-08-30 07:43:00,
2015-08-30 02:48:00,60.1,59.0,30.00,WNW,290,0.0,0.0,96,0.00,,,0.00,0.00,VWS V14.00,2015-08-30 07:48:00,
2015-08-30 02:53:00,60.0,58.9,30.00,WNW,291,0.0,0.0,96,0.00,,,0.00,0.00,VWS V14.00,2015-08-30 07:53:00,
2015-08-30 02:58:00,59.9,58.8,30.00,WNW,291,0.0,0.0,96,0.00,,,0.00,0.00,VWS V14.00,2015-08-30 07:58:00,
2015-08-30 03:03:00,59.9,59.0,30.00,WNW,291,0.0,0.0,97,0.00,,,0.00,0.00,VWS V14.00,2015-08-30 08:03:00,
2015-08-30 03:08:00,59.8,58.7,30.00,WNW,291,0.0,0.0,96,0.00,,,0.00,0.00,VWS V14.00,2015-08-30 08:08:00,
2015-08-30 03:13:00,59.7,58.8,30.00,WNW,290,0.0,0.0,97,0.00,,,0.00,0.00,VWS V14.00,2015-08-30 08:13:00,
2015-08-30 03:18:00,59.6,58.8,30.00,WNW,291,0.0,0.0,97,0.00,,,0.00,0.00,VWS V14.00,2015-08-30 08:18:00,
2015-08-30 03:23:00,59.8,59.0,30.00,WNW,291,0.0,0.0,97,0.00,,,0.00,0.00,VWS V14.00,2015-08-30 08:23:00,
2015-08-30 03:28:00,59.9,59.0,30.00,WNW,290,0.0,0.0,97,0.00,,,0.00,0.00,VWS V14.00,2015-08-30 08:28:00,
2015-08-30 03:33:00,59.8,59.0,30.00,WNW,291,0.0,0.0,97,0.00,,,0.00,0.00,VWS V14.00,2015-08-30 08:33:00,
2015-08-30 03:38:00,59.8,59.0,30.00,WNW,290,0.0,0.0,97,0.00,,,0.00,0.00,VWS V14.00,2015-08-30 08:38:00,
2015-08-30 03:43:00,59.8,59.0,30.00,WNW,291,0.0,0.0,97,0.00,,,0.00,0.00,VWS V14.00,2015-08-30 08:43:00,
2015-08-30 03:48:00,59.8,59.0,30.00,WNW,290,0.0,0.0,97,0.00,,,0.00,0.00,VWS V14.00,2015-08-30 08:48:00,
2015-08-30 03:53:00,59.7,58.8,30.00,WNW,290,0.0,0.0,97,0.00,,,0.00,0.00,VWS V14.00,2015-08-30 08:53:00,
2015-08-30 03:58:00,59.7,59.1,30.00,WNW,290,0.0,0.0,98,0.00,,,0.00,0.00,VWS V14.00,2015-08-30 08:58:00,
2015-08-30 04:03:00,59.7,59.1,30.00,WNW,291,0.0,0.0,98,0.00,,,0.00,0.00,VWS V14.00,2015-08-30 09:03:00,
2015-08-30 04:08:00,59.6,59.0,30.00,WNW,290,0.0,0.0,98,0.00,,,0.00,0.00,VWS V14.00,2015-08-30 09:08:00,
2015-08-30 04:13:00,59.6,59.0,30.00,WNW,290,0.0,0.0,98,0.00,,,0.00,0.00,VWS V14.00,2015-08-30 09:13:00,
2015-08-30 04:18:00,59.5,58.9,30.00,WNW,291,0.0,0.0,98,0.00,,,0.00,0.00,VWS V14.00,2015-08-30 09:18:00,
2015-08-30 04:23:00,59.4,58.5,30.01,WNW,291,0.0,0.0,97,0.00,,,0.00,0.00,VWS V14.00,2015-08-30 09:23:00,
2015-08-30 04:28:00,59.3,58.5,30.00,WNW,291,0.0,0.0,97,0.00,,,0.00,0.00,VWS V14.00,2015-08-30 09:28:00,
2015-08-30 04:33:00,59.2,58.3,30.00,WNW,291,0.0,0.0,97,0.00,,,0.00,0.00,VWS V14.00,2015-08-30 09:33:00,
2015-08-30 04:38:00,59.1,58.2,30.01,WNW,291,0.0,0.0,97,0.00,,,0.00,0.00,VWS V14.00,2015-08-30 09:38:00,
2015-08-30 04:43:00,59.1,58.5,30.01,WNW,291,0.0,0.0,98,0.00,,,0.00,0.00,VWS V14.00,2015-08-30 09:43:00,
2015-08-30 04:48:00,59.1,58.5,30.01,WNW,291,0.0,0.0,98,0.00,,,0.00,0.00,VWS V14.00,2015-08-30 09:48:00,
2015-08-30 04:58:00,59.2,58.6,30.01,WNW,290,0.0,0.0,98,0.00,,,0.00,0.00,VWS V14.00,2015-08-30 09:58:00,
2015-08-30 05:03:00,59.4,58.8,30.01,WNW,290,0.0,0.0,98,0.00,,,0.00,0.00,VWS V14.00,2015-08-30 10:03:00,
2015-08-30 05:08:00,59.5,58.9,30.00,WNW,291,0.0,0.0,98,0.00,,,0.00,0.00,VWS V14.00,2015-08-30 10:08:00,
2015-08-30 05:13:00,59.5,58.9,30.00,WNW,291,0.0,0.0,98,0.00,,,0.00,0.00,VWS V14.00,2015-08-30 10:13:00,
2015-08-30 05:18:00,59.7,59.1,30.00,WNW,290,0.0,0.0,98,0.00,,,0.00,0.00,VWS V14.00,2015-08-30 10:18:00,
2015-08-30 05:23:00,59.8,59.2,30.00,WNW,291,0.0,0.0,98,0.00,,,0.00,0.00,VWS V14.00,2015-08-30 10:23:00,
2015-08-30 05:28:00,60.1,59.5,30.00,WNW,291,0.0,0.0,98,0.00,,,0.00,0.00,VWS V14.00,2015-08-30 10:28:00,